sensor_id;sensor_type;location;lat;lon;timestamp;P1;durP1;ratioP1;P2;durP2;ratioP2
60205;SDS011;46072;51.554;6.846;2022-07-17T00:02:04;10.30;;;2.88;;
60205;SDS011;46072;51.554;6.846;2022-07-17T00:04:31;7.05;;;2.80;;
60205;SDS011;46072;51.554;6.846;2022-07-17T00:06:57;7.18;;;2.70;;
60205;SDS011;46072;51.554;6.846;2022-07-17T00:09:24;9.13;;;2.88;;
60205;SDS011;46072;51.554;6.846;2022-07-17T00:11:50;9.18;;;3.17;;
60205;SDS011;46072;51.554;6.846;2022-07-17T00:14:17;10.10;;;3.80;;
60205;SDS011;46072;51.554;6.846;2022-07-17T00:16:43;10.88;;;3.30;;
60205;SDS011;46072;51.554;6.846;2022-07-17T00:19:10;8.30;;;2.85;;
60205;SDS011;46072;51.554;6.846;2022-07-17T00:21:36;8.27;;;2.90;;
60205;SDS011;46072;51.554;6.846;2022-07-17T00:24:03;10.00;;;3.40;;
60205;SDS011;46072;51.554;6.846;2022-07-17T00:26:32;7.78;;;3.15;;
60205;SDS011;46072;51.554;6.846;2022-07-17T00:29:00;7.88;;;3.22;;
60205;SDS011;46072;51.554;6.846;2022-07-17T00:31:28;9.68;;;3.50;;
60205;SDS011;46072;51.554;6.846;2022-07-17T00:33:56;7.78;;;2.80;;
60205;SDS011;46072;51.554;6.846;2022-07-17T00:36:22;12.80;;;4.28;;
60205;SDS011;46072;51.554;6.846;2022-07-17T00:38:49;9.13;;;3.65;;
60205;SDS011;46072;51.554;6.846;2022-07-17T00:41:15;6.82;;;2.88;;
60205;SDS011;46072;51.554;6.846;2022-07-17T00:43:42;8.48;;;3.53;;
60205;SDS011;46072;51.554;6.846;2022-07-17T00:46:08;11.88;;;3.65;;
60205;SDS011;46072;51.554;6.846;2022-07-17T00:48:35;9.63;;;3.40;;
60205;SDS011;46072;51.554;6.846;2022-07-17T00:51:01;9.52;;;3.45;;
60205;SDS011;46072;51.554;6.846;2022-07-17T00:53:28;8.90;;;4.10;;
60205;SDS011;46072;51.554;6.846;2022-07-17T00:56:00;14.10;;;3.38;;
60205;SDS011;46072;51.554;6.846;2022-07-17T00:58:29;11.38;;;3.70;;
60205;SDS011;46072;51.554;6.846;2022-07-17T01:00:55;9.32;;;3.40;;
60205;SDS011;46072;51.554;6.846;2022-07-17T01:03:23;14.18;;;4.65;;
60205;SDS011;46072;51.554;6.846;2022-07-17T01:05:50;10.80;;;3.72;;
60205;SDS011;46072;51.554;6.846;2022-07-17T01:08:17;9.05;;;3.78;;
60205;SDS011;46072;51.554;6.846;2022-07-17T01:10:43;9.15;;;3.33;;
60205;SDS011;46072;51.554;6.846;2022-07-17T01:13:10;10.15;;;3.53;;
60205;SDS011;46072;51.554;6.846;2022-07-17T01:15:37;10.77;;;3.63;;
60205;SDS011;46072;51.554;6.846;2022-07-17T01:18:11;9.63;;;3.67;;
60205;SDS011;46072;51.554;6.846;2022-07-17T01:20:40;10.02;;;3.72;;
60205;SDS011;46072;51.554;6.846;2022-07-17T01:23:08;10.35;;;3.70;;
60205;SDS011;46072;51.554;6.846;2022-07-17T01:25:35;9.70;;;3.83;;
60205;SDS011;46072;51.554;6.846;2022-07-17T01:28:01;9.73;;;3.60;;
60205;SDS011;46072;51.554;6.846;2022-07-17T01:30:29;8.73;;;4.47;;
60205;SDS011;46072;51.554;6.846;2022-07-17T01:32:56;12.25;;;4.18;;
60205;SDS011;46072;51.554;6.846;2022-07-17T01:35:22;14.18;;;4.10;;
60205;SDS011;46072;51.554;6.846;2022-07-17T01:37:49;15.63;;;5.22;;
60205;SDS011;46072;51.554;6.846;2022-07-17T01:40:16;12.85;;;4.20;;
60205;SDS011;46072;51.554;6.846;2022-07-17T01:42:45;9.30;;;3.97;;
60205;SDS011;46072;51.554;6.846;2022-07-17T01:45:12;8.90;;;3.80;;
60205;SDS011;46072;51.554;6.846;2022-07-17T01:47:40;11.27;;;5.55;;
60205;SDS011;46072;51.554;6.846;2022-07-17T01:50:07;10.65;;;3.83;;
60205;SDS011;46072;51.554;6.846;2022-07-17T01:52:38;9.50;;;4.00;;
60205;SDS011;46072;51.554;6.846;2022-07-17T01:55:06;13.45;;;4.20;;
60205;SDS011;46072;51.554;6.846;2022-07-17T01:57:34;14.70;;;4.45;;
60205;SDS011;46072;51.554;6.846;2022-07-17T02:00:02;12.10;;;4.38;;
60205;SDS011;46072;51.554;6.846;2022-07-17T02:02:31;10.35;;;3.80;;
60205;SDS011;46072;51.554;6.846;2022-07-17T02:04:58;12.13;;;3.53;;
60205;SDS011;46072;51.554;6.846;2022-07-17T02:07:24;11.23;;;3.63;;
60205;SDS011;46072;51.554;6.846;2022-07-17T02:09:51;10.20;;;4.03;;
60205;SDS011;46072;51.554;6.846;2022-07-17T02:12:18;9.45;;;4.57;;
60205;SDS011;46072;51.554;6.846;2022-07-17T02:14:45;12.85;;;3.42;;
60205;SDS011;46072;51.554;6.846;2022-07-17T02:17:11;9.70;;;3.60;;
60205;SDS011;46072;51.554;6.846;2022-07-17T02:19:37;11.45;;;3.75;;
60205;SDS011;46072;51.554;6.846;2022-07-17T02:22:04;12.82;;;3.67;;
60205;SDS011;46072;51.554;6.846;2022-07-17T02:24:31;15.52;;;4.50;;
60205;SDS011;46072;51.554;6.846;2022-07-17T02:26:57;8.73;;;3.85;;
60205;SDS011;46072;51.554;6.846;2022-07-17T02:29:24;10.70;;;3.47;;
60205;SDS011;46072;51.554;6.846;2022-07-17T02:31:51;10.05;;;3.60;;
60205;SDS011;46072;51.554;6.846;2022-07-17T02:34:17;14.43;;;3.63;;
60205;SDS011;46072;51.554;6.846;2022-07-17T02:36:44;12.57;;;3.63;;
60205;SDS011;46072;51.554;6.846;2022-07-17T02:39:10;9.05;;;3.42;;
60205;SDS011;46072;51.554;6.846;2022-07-17T02:41:37;15.68;;;3.88;;
60205;SDS011;46072;51.554;6.846;2022-07-17T02:44:03;10.55;;;3.92;;
60205;SDS011;46072;51.554;6.846;2022-07-17T02:46:30;9.00;;;3.70;;
60205;SDS011;46072;51.554;6.846;2022-07-17T02:48:56;7.47;;;3.45;;
60205;SDS011;46072;51.554;6.846;2022-07-17T02:51:23;10.90;;;4.47;;
60205;SDS011;46072;51.554;6.846;2022-07-17T02:53:49;9.93;;;3.90;;
60205;SDS011;46072;51.554;6.846;2022-07-17T02:56:16;9.60;;;3.72;;
60205;SDS011;46072;51.554;6.846;2022-07-17T02:58:42;12.50;;;4.57;;
60205;SDS011;46072;51.554;6.846;2022-07-17T03:01:09;13.95;;;3.67;;
60205;SDS011;46072;51.554;6.846;2022-07-17T03:03:36;10.75;;;3.80;;
60205;SDS011;46072;51.554;6.846;2022-07-17T03:06:03;12.73;;;3.47;;
60205;SDS011;46072;51.554;6.846;2022-07-17T03:08:30;13.40;;;4.30;;
60205;SDS011;46072;51.554;6.846;2022-07-17T03:10:57;10.90;;;3.80;;
60205;SDS011;46072;51.554;6.846;2022-07-17T03:13:23;7.22;;;3.60;;
60205;SDS011;46072;51.554;6.846;2022-07-17T03:15:50;9.07;;;3.80;;
60205;SDS011;46072;51.554;6.846;2022-07-17T03:18:17;9.95;;;3.83;;
60205;SDS011;46072;51.554;6.846;2022-07-17T03:20:43;13.88;;;4.28;;
60205;SDS011;46072;51.554;6.846;2022-07-17T03:23:10;12.38;;;4.68;;
60205;SDS011;46072;51.554;6.846;2022-07-17T03:25:37;12.35;;;3.92;;
60205;SDS011;46072;51.554;6.846;2022-07-17T03:28:03;13.05;;;3.90;;
60205;SDS011;46072;51.554;6.846;2022-07-17T03:30:29;9.60;;;4.35;;
60205;SDS011;46072;51.554;6.846;2022-07-17T03:32:56;11.40;;;4.85;;
60205;SDS011;46072;51.554;6.846;2022-07-17T03:35:22;13.45;;;4.85;;
60205;SDS011;46072;51.554;6.846;2022-07-17T03:37:49;20.67;;;4.43;;
60205;SDS011;46072;51.554;6.846;2022-07-17T03:40:16;14.85;;;3.85;;
60205;SDS011;46072;51.554;6.846;2022-07-17T03:42:42;13.32;;;5.18;;
60205;SDS011;46072;51.554;6.846;2022-07-17T03:45:09;9.00;;;4.00;;
60205;SDS011;46072;51.554;6.846;2022-07-17T03:47:35;12.23;;;4.53;;
60205;SDS011;46072;51.554;6.846;2022-07-17T03:50:02;10.73;;;4.10;;
60205;SDS011;46072;51.554;6.846;2022-07-17T03:52:29;11.90;;;4.65;;
60205;SDS011;46072;51.554;6.846;2022-07-17T03:54:56;9.38;;;4.18;;
60205;SDS011;46072;51.554;6.846;2022-07-17T03:57:22;8.57;;;4.05;;
60205;SDS011;46072;51.554;6.846;2022-07-17T03:59:49;15.38;;;4.97;;
60205;SDS011;46072;51.554;6.846;2022-07-17T04:02:15;14.13;;;4.82;;
60205;SDS011;46072;51.554;6.846;2022-07-17T04:04:42;16.58;;;4.43;;
60205;SDS011;46072;51.554;6.846;2022-07-17T04:07:08;14.68;;;5.10;;
60205;SDS011;46072;51.554;6.846;2022-07-17T04:09:53;9.10;;;3.80;;
60205;SDS011;46072;51.554;6.846;2022-07-17T04:12:24;10.98;;;4.38;;
60205;SDS011;46072;51.554;6.846;2022-07-17T04:14:52;14.20;;;4.15;;
60205;SDS011;46072;51.554;6.846;2022-07-17T04:17:18;8.15;;;3.95;;
60205;SDS011;46072;51.554;6.846;2022-07-17T04:19:45;11.63;;;4.05;;
60205;SDS011;46072;51.554;6.846;2022-07-17T04:22:11;10.25;;;4.18;;
60205;SDS011;46072;51.554;6.846;2022-07-17T04:24:38;16.40;;;4.00;;
60205;SDS011;46072;51.554;6.846;2022-07-17T04:27:05;12.15;;;4.22;;
60205;SDS011;46072;51.554;6.846;2022-07-17T04:29:31;9.52;;;3.88;;
60205;SDS011;46072;51.554;6.846;2022-07-17T04:31:58;13.15;;;5.15;;
60205;SDS011;46072;51.554;6.846;2022-07-17T04:34:25;11.02;;;4.10;;
60205;SDS011;46072;51.554;6.846;2022-07-17T04:36:52;11.70;;;3.47;;
60205;SDS011;46072;51.554;6.846;2022-07-17T04:39:18;13.07;;;4.07;;
60205;SDS011;46072;51.554;6.846;2022-07-17T04:41:45;9.75;;;3.95;;
60205;SDS011;46072;51.554;6.846;2022-07-17T04:44:11;10.07;;;3.80;;
60205;SDS011;46072;51.554;6.846;2022-07-17T04:46:38;12.65;;;4.22;;
60205;SDS011;46072;51.554;6.846;2022-07-17T04:49:05;13.02;;;4.10;;
60205;SDS011;46072;51.554;6.846;2022-07-17T04:51:31;12.43;;;3.92;;
60205;SDS011;46072;51.554;6.846;2022-07-17T04:53:58;10.68;;;3.75;;
60205;SDS011;46072;51.554;6.846;2022-07-17T04:56:24;10.85;;;3.80;;
60205;SDS011;46072;51.554;6.846;2022-07-17T04:58:51;12.23;;;3.83;;
60205;SDS011;46072;51.554;6.846;2022-07-17T05:01:17;11.70;;;3.92;;
60205;SDS011;46072;51.554;6.846;2022-07-17T05:03:44;12.93;;;3.50;;
60205;SDS011;46072;51.554;6.846;2022-07-17T05:06:11;9.93;;;3.72;;
60205;SDS011;46072;51.554;6.846;2022-07-17T05:08:37;12.32;;;4.28;;
60205;SDS011;46072;51.554;6.846;2022-07-17T05:11:04;14.20;;;3.90;;
60205;SDS011;46072;51.554;6.846;2022-07-17T05:13:30;6.80;;;3.25;;
60205;SDS011;46072;51.554;6.846;2022-07-17T05:15:57;11.18;;;3.67;;
60205;SDS011;46072;51.554;6.846;2022-07-17T05:18:24;11.63;;;3.95;;
60205;SDS011;46072;51.554;6.846;2022-07-17T05:20:50;9.00;;;3.13;;
60205;SDS011;46072;51.554;6.846;2022-07-17T05:23:16;11.63;;;3.58;;
60205;SDS011;46072;51.554;6.846;2022-07-17T05:25:43;11.50;;;3.60;;
60205;SDS011;46072;51.554;6.846;2022-07-17T05:28:10;10.13;;;3.47;;
60205;SDS011;46072;51.554;6.846;2022-07-17T05:30:36;9.82;;;3.10;;
60205;SDS011;46072;51.554;6.846;2022-07-17T05:33:03;10.07;;;3.53;;
60205;SDS011;46072;51.554;6.846;2022-07-17T05:35:29;8.93;;;3.53;;
60205;SDS011;46072;51.554;6.846;2022-07-17T05:37:57;10.63;;;3.42;;
60205;SDS011;46072;51.554;6.846;2022-07-17T05:40:24;7.68;;;3.38;;
60205;SDS011;46072;51.554;6.846;2022-07-17T05:42:52;11.85;;;3.50;;
60205;SDS011;46072;51.554;6.846;2022-07-17T05:45:18;14.35;;;3.88;;
60205;SDS011;46072;51.554;6.846;2022-07-17T05:47:45;10.43;;;3.20;;
60205;SDS011;46072;51.554;6.846;2022-07-17T05:50:11;11.10;;;3.40;;
60205;SDS011;46072;51.554;6.846;2022-07-17T05:52:38;11.70;;;3.10;;
60205;SDS011;46072;51.554;6.846;2022-07-17T05:55:04;13.93;;;3.53;;
60205;SDS011;46072;51.554;6.846;2022-07-17T05:57:31;11.25;;;3.83;;
60205;SDS011;46072;51.554;6.846;2022-07-17T05:59:57;9.35;;;3.47;;
60205;SDS011;46072;51.554;6.846;2022-07-17T06:02:24;12.18;;;3.65;;
60205;SDS011;46072;51.554;6.846;2022-07-17T06:04:50;8.70;;;3.35;;
60205;SDS011;46072;51.554;6.846;2022-07-17T06:07:17;9.27;;;3.50;;
60205;SDS011;46072;51.554;6.846;2022-07-17T06:09:43;15.35;;;3.70;;
60205;SDS011;46072;51.554;6.846;2022-07-17T06:12:10;10.60;;;3.25;;
60205;SDS011;46072;51.554;6.846;2022-07-17T06:14:36;13.18;;;3.22;;
60205;SDS011;46072;51.554;6.846;2022-07-17T06:17:03;8.13;;;3.05;;
60205;SDS011;46072;51.554;6.846;2022-07-17T06:19:29;8.48;;;3.10;;
60205;SDS011;46072;51.554;6.846;2022-07-17T06:21:56;13.20;;;3.22;;
60205;SDS011;46072;51.554;6.846;2022-07-17T06:24:22;9.68;;;3.20;;
60205;SDS011;46072;51.554;6.846;2022-07-17T06:26:48;12.75;;;3.83;;
60205;SDS011;46072;51.554;6.846;2022-07-17T06:29:16;11.55;;;3.28;;
60205;SDS011;46072;51.554;6.846;2022-07-17T06:31:43;10.98;;;3.47;;
60205;SDS011;46072;51.554;6.846;2022-07-17T06:34:09;11.02;;;3.10;;
60205;SDS011;46072;51.554;6.846;2022-07-17T06:36:36;9.77;;;3.40;;
60205;SDS011;46072;51.554;6.846;2022-07-17T06:39:02;11.35;;;3.10;;
60205;SDS011;46072;51.554;6.846;2022-07-17T06:41:29;13.95;;;3.45;;
60205;SDS011;46072;51.554;6.846;2022-07-17T06:43:55;11.45;;;3.53;;
60205;SDS011;46072;51.554;6.846;2022-07-17T06:46:22;8.93;;;2.90;;
60205;SDS011;46072;51.554;6.846;2022-07-17T06:48:48;13.23;;;3.45;;
60205;SDS011;46072;51.554;6.846;2022-07-17T06:51:17;12.15;;;3.15;;
60205;SDS011;46072;51.554;6.846;2022-07-17T06:53:44;13.07;;;3.20;;
60205;SDS011;46072;51.554;6.846;2022-07-17T06:56:11;10.65;;;2.80;;
60205;SDS011;46072;51.554;6.846;2022-07-17T06:58:38;12.60;;;3.15;;
60205;SDS011;46072;51.554;6.846;2022-07-17T07:01:04;14.90;;;2.90;;
60205;SDS011;46072;51.554;6.846;2022-07-17T07:03:31;12.02;;;3.13;;
60205;SDS011;46072;51.554;6.846;2022-07-17T07:05:57;13.15;;;2.90;;
60205;SDS011;46072;51.554;6.846;2022-07-17T07:08:24;14.00;;;3.03;;
60205;SDS011;46072;51.554;6.846;2022-07-17T07:10:51;9.70;;;2.88;;
60205;SDS011;46072;51.554;6.846;2022-07-17T07:13:18;10.25;;;2.70;;
60205;SDS011;46072;51.554;6.846;2022-07-17T07:15:44;8.82;;;2.83;;
60205;SDS011;46072;51.554;6.846;2022-07-17T07:18:11;12.38;;;2.88;;
60205;SDS011;46072;51.554;6.846;2022-07-17T07:20:37;13.48;;;3.17;;
60205;SDS011;46072;51.554;6.846;2022-07-17T07:23:04;9.07;;;2.72;;
60205;SDS011;46072;51.554;6.846;2022-07-17T07:25:32;16.45;;;3.13;;
60205;SDS011;46072;51.554;6.846;2022-07-17T07:28:01;12.52;;;2.70;;
60205;SDS011;46072;51.554;6.846;2022-07-17T07:30:27;8.35;;;3.00;;
60205;SDS011;46072;51.554;6.846;2022-07-17T07:32:54;9.93;;;2.72;;
60205;SDS011;46072;51.554;6.846;2022-07-17T07:35:20;10.95;;;3.10;;
60205;SDS011;46072;51.554;6.846;2022-07-17T07:37:47;11.07;;;2.70;;
60205;SDS011;46072;51.554;6.846;2022-07-17T07:40:13;12.75;;;3.13;;
60205;SDS011;46072;51.554;6.846;2022-07-17T07:42:40;10.65;;;2.83;;
60205;SDS011;46072;51.554;6.846;2022-07-17T07:45:07;12.73;;;3.33;;
60205;SDS011;46072;51.554;6.846;2022-07-17T07:47:44;10.95;;;2.90;;
60205;SDS011;46072;51.554;6.846;2022-07-17T07:50:14;11.40;;;3.42;;
60205;SDS011;46072;51.554;6.846;2022-07-17T07:52:41;10.80;;;2.83;;
60205;SDS011;46072;51.554;6.846;2022-07-17T07:55:08;12.90;;;3.15;;
60205;SDS011;46072;51.554;6.846;2022-07-17T07:57:45;10.60;;;2.88;;
60205;SDS011;46072;51.554;6.846;2022-07-17T08:00:11;11.50;;;3.00;;
60205;SDS011;46072;51.554;6.846;2022-07-17T08:02:39;12.35;;;3.22;;
60205;SDS011;46072;51.554;6.846;2022-07-17T08:05:05;9.48;;;2.90;;
60205;SDS011;46072;51.554;6.846;2022-07-17T08:07:33;8.90;;;2.58;;
60205;SDS011;46072;51.554;6.846;2022-07-17T08:10:01;10.80;;;2.30;;
60205;SDS011;46072;51.554;6.846;2022-07-17T08:12:27;9.30;;;2.63;;
60205;SDS011;46072;51.554;6.846;2022-07-17T08:15:11;11.93;;;2.70;;
60205;SDS011;46072;51.554;6.846;2022-07-17T08:17:38;8.10;;;2.17;;
60205;SDS011;46072;51.554;6.846;2022-07-17T08:20:04;11.45;;;2.65;;
60205;SDS011;46072;51.554;6.846;2022-07-17T08:22:38;11.65;;;2.72;;
60205;SDS011;46072;51.554;6.846;2022-07-17T08:25:25;9.55;;;2.60;;
60205;SDS011;46072;51.554;6.846;2022-07-17T08:27:51;12.15;;;2.80;;
60205;SDS011;46072;51.554;6.846;2022-07-17T08:30:18;11.40;;;2.58;;
60205;SDS011;46072;51.554;6.846;2022-07-17T08:32:44;15.98;;;2.78;;
60205;SDS011;46072;51.554;6.846;2022-07-17T08:35:11;10.48;;;2.80;;
60205;SDS011;46072;51.554;6.846;2022-07-17T08:37:41;9.95;;;2.20;;
60205;SDS011;46072;51.554;6.846;2022-07-17T08:40:25;12.15;;;3.00;;
60205;SDS011;46072;51.554;6.846;2022-07-17T08:42:53;9.95;;;2.80;;
60205;SDS011;46072;51.554;6.846;2022-07-17T08:45:21;7.32;;;2.40;;
60205;SDS011;46072;51.554;6.846;2022-07-17T08:47:52;9.43;;;2.70;;
60205;SDS011;46072;51.554;6.846;2022-07-17T08:50:27;9.32;;;3.05;;
60205;SDS011;46072;51.554;6.846;2022-07-17T08:53:15;12.38;;;2.63;;
60205;SDS011;46072;51.554;6.846;2022-07-17T08:55:41;12.57;;;2.47;;
60205;SDS011;46072;51.554;6.846;2022-07-17T08:58:13;14.57;;;3.22;;
60205;SDS011;46072;51.554;6.846;2022-07-17T09:00:41;6.70;;;2.40;;
60205;SDS011;46072;51.554;6.846;2022-07-17T09:03:07;11.75;;;2.67;;
60205;SDS011;46072;51.554;6.846;2022-07-17T09:05:36;9.85;;;2.42;;
60205;SDS011;46072;51.554;6.846;2022-07-17T09:08:05;9.32;;;2.75;;
60205;SDS011;46072;51.554;6.846;2022-07-17T09:13:12;9.30;;;2.35;;
60205;SDS011;46072;51.554;6.846;2022-07-17T09:15:48;10.43;;;2.80;;
60205;SDS011;46072;51.554;6.846;2022-07-17T09:18:17;5.85;;;2.30;;
60205;SDS011;46072;51.554;6.846;2022-07-17T09:20:54;9.55;;;2.75;;
60205;SDS011;46072;51.554;6.846;2022-07-17T09:23:22;10.07;;;2.75;;
60205;SDS011;46072;51.554;6.846;2022-07-17T09:25:51;8.93;;;2.10;;
60205;SDS011;46072;51.554;6.846;2022-07-17T09:28:19;10.93;;;2.90;;
60205;SDS011;46072;51.554;6.846;2022-07-17T09:30:48;6.85;;;2.63;;
60205;SDS011;46072;51.554;6.846;2022-07-17T09:33:18;9.57;;;2.70;;
60205;SDS011;46072;51.554;6.846;2022-07-17T09:38:27;7.47;;;2.65;;
60205;SDS011;46072;51.554;6.846;2022-07-17T09:41:02;7.68;;;2.28;;
60205;SDS011;46072;51.554;6.846;2022-07-17T09:43:39;8.43;;;2.90;;
60205;SDS011;46072;51.554;6.846;2022-07-17T09:46:15;7.85;;;2.28;;
60205;SDS011;46072;51.554;6.846;2022-07-17T09:48:43;5.80;;;2.05;;
60205;SDS011;46072;51.554;6.846;2022-07-17T09:51:21;7.68;;;2.50;;
60205;SDS011;46072;51.554;6.846;2022-07-17T09:53:50;11.90;;;2.78;;
60205;SDS011;46072;51.554;6.846;2022-07-17T09:56:22;8.43;;;2.45;;
60205;SDS011;46072;51.554;6.846;2022-07-17T09:59:00;7.60;;;2.53;;
60205;SDS011;46072;51.554;6.846;2022-07-17T10:01:31;11.77;;;2.53;;
60205;SDS011;46072;51.554;6.846;2022-07-17T10:03:59;10.60;;;2.40;;
60205;SDS011;46072;51.554;6.846;2022-07-17T10:06:26;10.38;;;2.60;;
60205;SDS011;46072;51.554;6.846;2022-07-17T10:08:53;9.05;;;2.83;;
60205;SDS011;46072;51.554;6.846;2022-07-17T10:11:22;9.38;;;2.53;;
60205;SDS011;46072;51.554;6.846;2022-07-17T10:13:51;9.32;;;2.67;;
60205;SDS011;46072;51.554;6.846;2022-07-17T10:16:26;6.10;;;2.33;;
60205;SDS011;46072;51.554;6.846;2022-07-17T10:18:55;9.32;;;2.70;;
60205;SDS011;46072;51.554;6.846;2022-07-17T10:21:25;7.65;;;2.50;;
60205;SDS011;46072;51.554;6.846;2022-07-17T10:28:58;7.97;;;2.45;;
60205;SDS011;46072;51.554;6.846;2022-07-17T10:31:27;8.50;;;2.20;;
60205;SDS011;46072;51.554;6.846;2022-07-17T10:34:00;8.00;;;2.35;;
60205;SDS011;46072;51.554;6.846;2022-07-17T10:39:17;7.88;;;2.50;;
60205;SDS011;46072;51.554;6.846;2022-07-17T10:41:57;8.98;;;2.35;;
60205;SDS011;46072;51.554;6.846;2022-07-17T10:44:29;8.30;;;2.63;;
60205;SDS011;46072;51.554;6.846;2022-07-17T10:47:00;11.50;;;2.63;;
60205;SDS011;46072;51.554;6.846;2022-07-17T10:49:27;5.43;;;2.35;;
60205;SDS011;46072;51.554;6.846;2022-07-17T10:51:53;7.35;;;2.13;;
60205;SDS011;46072;51.554;6.846;2022-07-17T10:54:20;9.52;;;2.70;;
60205;SDS011;46072;51.554;6.846;2022-07-17T10:56:47;5.63;;;2.05;;
60205;SDS011;46072;51.554;6.846;2022-07-17T10:59:14;7.32;;;2.08;;
60205;SDS011;46072;51.554;6.846;2022-07-17T11:01:41;7.53;;;2.10;;
60205;SDS011;46072;51.554;6.846;2022-07-17T11:04:08;6.93;;;2.17;;
60205;SDS011;46072;51.554;6.846;2022-07-17T11:06:36;6.22;;;2.30;;
60205;SDS011;46072;51.554;6.846;2022-07-17T11:09:10;6.47;;;1.73;;
60205;SDS011;46072;51.554;6.846;2022-07-17T11:11:46;6.28;;;2.25;;
60205;SDS011;46072;51.554;6.846;2022-07-17T11:16:49;6.80;;;2.42;;
60205;SDS011;46072;51.554;6.846;2022-07-17T11:19:20;6.65;;;2.20;;
60205;SDS011;46072;51.554;6.846;2022-07-17T11:21:47;5.78;;;2.28;;
60205;SDS011;46072;51.554;6.846;2022-07-17T11:24:15;9.32;;;2.67;;
60205;SDS011;46072;51.554;6.846;2022-07-17T11:26:42;8.60;;;2.42;;
60205;SDS011;46072;51.554;6.846;2022-07-17T11:29:10;9.57;;;2.30;;
60205;SDS011;46072;51.554;6.846;2022-07-17T11:31:37;9.60;;;2.33;;
60205;SDS011;46072;51.554;6.846;2022-07-17T11:34:05;8.70;;;2.60;;
60205;SDS011;46072;51.554;6.846;2022-07-17T11:36:36;8.10;;;2.67;;
60205;SDS011;46072;51.554;6.846;2022-07-17T11:39:08;5.82;;;2.45;;
60205;SDS011;46072;51.554;6.846;2022-07-17T11:41:49;9.85;;;2.70;;
60205;SDS011;46072;51.554;6.846;2022-07-17T11:44:19;7.18;;;2.70;;
60205;SDS011;46072;51.554;6.846;2022-07-17T11:46:48;7.10;;;2.30;;
60205;SDS011;46072;51.554;6.846;2022-07-17T11:49:24;6.85;;;2.97;;
60205;SDS011;46072;51.554;6.846;2022-07-17T11:51:58;8.70;;;3.13;;
60205;SDS011;46072;51.554;6.846;2022-07-17T11:54:26;7.47;;;2.63;;
60205;SDS011;46072;51.554;6.846;2022-07-17T11:56:54;5.43;;;2.38;;
60205;SDS011;46072;51.554;6.846;2022-07-17T11:59:25;6.18;;;2.40;;
60205;SDS011;46072;51.554;6.846;2022-07-17T12:04:21;6.88;;;2.20;;
60205;SDS011;46072;51.554;6.846;2022-07-17T12:07:00;11.13;;;2.53;;
60205;SDS011;46072;51.554;6.846;2022-07-17T12:11:55;7.80;;;2.60;;
60205;SDS011;46072;51.554;6.846;2022-07-17T12:14:22;8.30;;;2.65;;
60205;SDS011;46072;51.554;6.846;2022-07-17T12:16:48;7.82;;;2.53;;
60205;SDS011;46072;51.554;6.846;2022-07-17T12:19:16;6.00;;;2.42;;
60205;SDS011;46072;51.554;6.846;2022-07-17T12:21:59;4.53;;;2.00;;
60205;SDS011;46072;51.554;6.846;2022-07-17T12:24:31;4.95;;;2.20;;
60205;SDS011;46072;51.554;6.846;2022-07-17T12:26:59;7.72;;;2.50;;
60205;SDS011;46072;51.554;6.846;2022-07-17T12:29:27;6.70;;;2.35;;
60205;SDS011;46072;51.554;6.846;2022-07-17T12:32:07;7.97;;;2.22;;
60205;SDS011;46072;51.554;6.846;2022-07-17T12:34:37;4.93;;;2.13;;
60205;SDS011;46072;51.554;6.846;2022-07-17T12:37:12;5.40;;;2.30;;
60205;SDS011;46072;51.554;6.846;2022-07-17T12:39:42;7.10;;;2.08;;
60205;SDS011;46072;51.554;6.846;2022-07-17T12:42:13;5.97;;;2.17;;
60205;SDS011;46072;51.554;6.846;2022-07-17T12:44:43;9.18;;;3.15;;
60205;SDS011;46072;51.554;6.846;2022-07-17T12:47:11;5.10;;;2.40;;
60205;SDS011;46072;51.554;6.846;2022-07-17T12:49:37;7.45;;;2.30;;
60205;SDS011;46072;51.554;6.846;2022-07-17T12:52:06;6.00;;;2.13;;
60205;SDS011;46072;51.554;6.846;2022-07-17T12:54:32;6.40;;;2.08;;
60205;SDS011;46072;51.554;6.846;2022-07-17T12:56:59;4.32;;;2.40;;
60205;SDS011;46072;51.554;6.846;2022-07-17T12:59:25;5.60;;;2.20;;
60205;SDS011;46072;51.554;6.846;2022-07-17T13:01:52;7.85;;;2.40;;
60205;SDS011;46072;51.554;6.846;2022-07-17T13:04:20;8.90;;;2.33;;
60205;SDS011;46072;51.554;6.846;2022-07-17T13:06:47;9.15;;;2.67;;
60205;SDS011;46072;51.554;6.846;2022-07-17T13:09:14;6.38;;;2.67;;
60205;SDS011;46072;51.554;6.846;2022-07-17T13:11:43;10.32;;;2.78;;
60205;SDS011;46072;51.554;6.846;2022-07-17T13:14:11;7.80;;;3.10;;
60205;SDS011;46072;51.554;6.846;2022-07-17T13:16:38;6.97;;;3.05;;
60205;SDS011;46072;51.554;6.846;2022-07-17T13:19:05;9.70;;;3.35;;
60205;SDS011;46072;51.554;6.846;2022-07-17T13:21:32;10.98;;;3.40;;
60205;SDS011;46072;51.554;6.846;2022-07-17T13:23:58;10.60;;;3.70;;
60205;SDS011;46072;51.554;6.846;2022-07-17T13:26:25;8.77;;;3.42;;
60205;SDS011;46072;51.554;6.846;2022-07-17T13:28:51;10.48;;;3.40;;
60205;SDS011;46072;51.554;6.846;2022-07-17T13:31:18;8.35;;;2.78;;
60205;SDS011;46072;51.554;6.846;2022-07-17T13:33:45;7.35;;;2.50;;
60205;SDS011;46072;51.554;6.846;2022-07-17T13:36:11;9.02;;;2.80;;
60205;SDS011;46072;51.554;6.846;2022-07-17T13:38:38;7.10;;;2.40;;
60205;SDS011;46072;51.554;6.846;2022-07-17T13:41:04;6.00;;;2.63;;
60205;SDS011;46072;51.554;6.846;2022-07-17T13:43:31;6.53;;;2.33;;
60205;SDS011;46072;51.554;6.846;2022-07-17T13:45:59;5.90;;;2.40;;
60205;SDS011;46072;51.554;6.846;2022-07-17T13:48:26;6.32;;;2.30;;
60205;SDS011;46072;51.554;6.846;2022-07-17T13:50:53;8.73;;;2.25;;
60205;SDS011;46072;51.554;6.846;2022-07-17T13:53:19;7.63;;;2.60;;
60205;SDS011;46072;51.554;6.846;2022-07-17T13:55:46;6.60;;;2.78;;
60205;SDS011;46072;51.554;6.846;2022-07-17T13:58:17;7.13;;;3.25;;
60205;SDS011;46072;51.554;6.846;2022-07-17T14:00:44;10.35;;;3.28;;
60205;SDS011;46072;51.554;6.846;2022-07-17T14:03:11;8.07;;;2.80;;
60205;SDS011;46072;51.554;6.846;2022-07-17T14:05:38;8.40;;;3.15;;
60205;SDS011;46072;51.554;6.846;2022-07-17T14:08:04;8.32;;;3.25;;
60205;SDS011;46072;51.554;6.846;2022-07-17T14:10:31;8.65;;;2.47;;
60205;SDS011;46072;51.554;6.846;2022-07-17T14:12:58;5.97;;;2.10;;
60205;SDS011;46072;51.554;6.846;2022-07-17T14:15:25;6.32;;;2.30;;
60205;SDS011;46072;51.554;6.846;2022-07-17T14:17:52;6.25;;;2.33;;
60205;SDS011;46072;51.554;6.846;2022-07-17T14:20:18;5.55;;;1.95;;
60205;SDS011;46072;51.554;6.846;2022-07-17T14:22:45;4.32;;;2.22;;
60205;SDS011;46072;51.554;6.846;2022-07-17T14:25:12;4.50;;;1.98;;
60205;SDS011;46072;51.554;6.846;2022-07-17T14:27:38;6.57;;;2.22;;
60205;SDS011;46072;51.554;6.846;2022-07-17T14:30:05;6.70;;;2.08;;
60205;SDS011;46072;51.554;6.846;2022-07-17T14:32:32;6.78;;;2.10;;
60205;SDS011;46072;51.554;6.846;2022-07-17T14:34:59;5.30;;;1.92;;
60205;SDS011;46072;51.554;6.846;2022-07-17T14:37:25;6.60;;;1.85;;
60205;SDS011;46072;51.554;6.846;2022-07-17T14:39:52;5.80;;;2.10;;
60205;SDS011;46072;51.554;6.846;2022-07-17T14:42:18;5.15;;;2.00;;
60205;SDS011;46072;51.554;6.846;2022-07-17T14:44:45;6.30;;;2.10;;
60205;SDS011;46072;51.554;6.846;2022-07-17T14:47:11;5.28;;;2.15;;
60205;SDS011;46072;51.554;6.846;2022-07-17T14:49:38;7.90;;;1.98;;
60205;SDS011;46072;51.554;6.846;2022-07-17T14:52:04;4.57;;;1.75;;
60205;SDS011;46072;51.554;6.846;2022-07-17T14:54:31;6.50;;;1.67;;
60205;SDS011;46072;51.554;6.846;2022-07-17T14:56:58;6.22;;;2.10;;
60205;SDS011;46072;51.554;6.846;2022-07-17T14:59:25;4.15;;;1.85;;
60205;SDS011;46072;51.554;6.846;2022-07-17T15:01:52;6.95;;;2.00;;
60205;SDS011;46072;51.554;6.846;2022-07-17T15:04:20;4.95;;;1.80;;
60205;SDS011;46072;51.554;6.846;2022-07-17T15:06:46;4.43;;;1.80;;